sensor_id;sensor_type;location;lat;lon;timestamp;P1;durP1;ratioP1;P2;durP2;ratioP2
7203;SDS011;3643;52.460;13.322;2023-02-03T00:01:08;12.00;;;4.13;;
7203;SDS011;3643;52.460;13.322;2023-02-03T00:03:37;9.00;;;3.53;;
7203;SDS011;3643;52.460;13.322;2023-02-03T00:06:06;11.80;;;3.53;;
7203;SDS011;3643;52.460;13.322;2023-02-03T00:08:35;10.67;;;3.27;;
7203;SDS011;3643;52.460;13.322;2023-02-03T00:11:05;9.13;;;3.63;;
7203;SDS011;3643;52.460;13.322;2023-02-03T00:13:34;15.10;;;3.90;;
7203;SDS011;3643;52.460;13.322;2023-02-03T00:16:03;4.40;;;2.87;;
7203;SDS011;3643;52.460;13.322;2023-02-03T00:18:34;15.43;;;3.67;;
7203;SDS011;3643;52.460;13.322;2023-02-03T00:21:04;8.10;;;3.37;;
7203;SDS011;3643;52.460;13.322;2023-02-03T00:23:33;7.47;;;3.13;;
7203;SDS011;3643;52.460;13.322;2023-02-03T00:26:06;10.17;;;3.40;;
7203;SDS011;3643;52.460;13.322;2023-02-03T00:28:35;10.63;;;3.70;;
7203;SDS011;3643;52.460;13.322;2023-02-03T00:31:03;12.60;;;3.90;;
7203;SDS011;3643;52.460;13.322;2023-02-03T00:33:32;8.77;;;3.57;;
7203;SDS011;3643;52.460;13.322;2023-02-03T00:36:04;19.03;;;3.90;;
7203;SDS011;3643;52.460;13.322;2023-02-03T00:38:33;11.60;;;3.60;;
7203;SDS011;3643;52.460;13.322;2023-02-03T00:41:02;11.10;;;3.70;;
7203;SDS011;3643;52.460;13.322;2023-02-03T00:43:31;10.77;;;3.40;;
7203;SDS011;3643;52.460;13.322;2023-02-03T00:45:59;12.30;;;4.10;;
7203;SDS011;3643;52.460;13.322;2023-02-03T00:48:28;10.13;;;3.97;;
7203;SDS011;3643;52.460;13.322;2023-02-03T00:50:58;8.67;;;3.47;;
7203;SDS011;3643;52.460;13.322;2023-02-03T00:53:26;8.07;;;3.50;;
7203;SDS011;3643;52.460;13.322;2023-02-03T00:55:55;16.10;;;3.80;;
7203;SDS011;3643;52.460;13.322;2023-02-03T00:58:23;12.50;;;4.30;;
7203;SDS011;3643;52.460;13.322;2023-02-03T01:00:53;16.30;;;4.43;;
7203;SDS011;3643;52.460;13.322;2023-02-03T01:03:24;15.60;;;5.07;;
7203;SDS011;3643;52.460;13.322;2023-02-03T01:05:52;15.63;;;4.27;;
7203;SDS011;3643;52.460;13.322;2023-02-03T01:08:22;11.83;;;4.47;;
7203;SDS011;3643;52.460;13.322;2023-02-03T01:10:50;14.17;;;4.33;;
7203;SDS011;3643;52.460;13.322;2023-02-03T01:13:19;15.57;;;4.70;;
7203;SDS011;3643;52.460;13.322;2023-02-03T01:15:47;17.93;;;5.20;;
7203;SDS011;3643;52.460;13.322;2023-02-03T01:18:15;16.17;;;6.23;;
7203;SDS011;3643;52.460;13.322;2023-02-03T01:20:43;19.33;;;5.73;;
7203;SDS011;3643;52.460;13.322;2023-02-03T01:23:11;16.90;;;5.57;;
7203;SDS011;3643;52.460;13.322;2023-02-03T01:25:41;18.57;;;6.60;;
7203;SDS011;3643;52.460;13.322;2023-02-03T01:28:10;13.03;;;6.60;;
7203;SDS011;3643;52.460;13.322;2023-02-03T01:30:39;12.77;;;5.93;;
7203;SDS011;3643;52.460;13.322;2023-02-03T01:33:07;16.30;;;6.33;;
7203;SDS011;3643;52.460;13.322;2023-02-03T01:35:35;20.63;;;7.13;;
7203;SDS011;3643;52.460;13.322;2023-02-03T01:38:03;16.83;;;7.47;;
7203;SDS011;3643;52.460;13.322;2023-02-03T01:40:31;19.30;;;7.13;;
7203;SDS011;3643;52.460;13.322;2023-02-03T01:43:01;17.93;;;7.40;;
7203;SDS011;3643;52.460;13.322;2023-02-03T01:45:29;19.27;;;7.90;;
7203;SDS011;3643;52.460;13.322;2023-02-03T01:47:58;17.50;;;8.30;;
7203;SDS011;3643;52.460;13.322;2023-02-03T01:50:28;22.27;;;8.47;;
7203;SDS011;3643;52.460;13.322;2023-02-03T01:53:01;19.13;;;8.23;;
7203;SDS011;3643;52.460;13.322;2023-02-03T01:55:33;20.33;;;9.40;;
7203;SDS011;3643;52.460;13.322;2023-02-03T01:58:08;21.17;;;8.23;;
7203;SDS011;3643;52.460;13.322;2023-02-03T02:00:38;18.33;;;7.83;;
7203;SDS011;3643;52.460;13.322;2023-02-03T02:03:07;17.07;;;8.30;;
7203;SDS011;3643;52.460;13.322;2023-02-03T02:05:37;21.83;;;8.77;;
7203;SDS011;3643;52.460;13.322;2023-02-03T02:08:09;19.17;;;7.77;;
7203;SDS011;3643;52.460;13.322;2023-02-03T02:10:40;17.63;;;7.43;;
7203;SDS011;3643;52.460;13.322;2023-02-03T02:13:11;14.77;;;7.40;;
7203;SDS011;3643;52.460;13.322;2023-02-03T02:15:43;19.77;;;8.17;;
7203;SDS011;3643;52.460;13.322;2023-02-03T02:18:21;22.90;;;8.50;;
7203;SDS011;3643;52.460;13.322;2023-02-03T02:21:02;16.37;;;7.90;;
7203;SDS011;3643;52.460;13.322;2023-02-03T02:24:06;21.53;;;8.57;;
7203;SDS011;3643;52.460;13.322;2023-02-03T02:26:59;17.33;;;8.33;;
7203;SDS011;3643;52.460;13.322;2023-02-03T02:29:52;23.03;;;8.50;;
7203;SDS011;3643;52.460;13.322;2023-02-03T02:32:54;20.27;;;8.23;;
7203;SDS011;3643;52.460;13.322;2023-02-03T02:35:31;18.50;;;8.43;;
7203;SDS011;3643;52.460;13.322;2023-02-03T02:38:14;19.33;;;8.23;;
7203;SDS011;3643;52.460;13.322;2023-02-03T02:40:51;15.67;;;8.10;;
7203;SDS011;3643;52.460;13.322;2023-02-03T02:43:27;16.00;;;6.80;;
7203;SDS011;3643;52.460;13.322;2023-02-03T02:46:04;14.67;;;7.33;;
7203;SDS011;3643;52.460;13.322;2023-02-03T02:48:42;14.13;;;7.13;;
7203;SDS011;3643;52.460;13.322;2023-02-03T02:51:16;10.07;;;5.87;;
7203;SDS011;3643;52.460;13.322;2023-02-03T02:53:48;14.63;;;6.90;;
7203;SDS011;3643;52.460;13.322;2023-02-03T02:56:20;14.90;;;7.10;;
7203;SDS011;3643;52.460;13.322;2023-02-03T02:58:52;14.23;;;6.17;;
7203;SDS011;3643;52.460;13.322;2023-02-03T03:01:23;13.07;;;7.40;;
7203;SDS011;3643;52.460;13.322;2023-02-03T03:03:59;12.23;;;6.90;;
7203;SDS011;3643;52.460;13.322;2023-02-03T03:06:30;13.93;;;6.20;;
7203;SDS011;3643;52.460;13.322;2023-02-03T03:09:03;11.13;;;6.20;;
7203;SDS011;3643;52.460;13.322;2023-02-03T03:14:02;12.80;;;6.23;;
7203;SDS011;3643;52.460;13.322;2023-02-03T03:16:33;13.97;;;5.80;;
7203;SDS011;3643;52.460;13.322;2023-02-03T03:19:06;10.57;;;6.23;;
7203;SDS011;3643;52.460;13.322;2023-02-03T03:21:41;12.60;;;5.40;;
7203;SDS011;3643;52.460;13.322;2023-02-03T03:24:14;9.67;;;5.40;;
7203;SDS011;3643;52.460;13.322;2023-02-03T03:26:49;9.83;;;5.47;;
7203;SDS011;3643;52.460;13.322;2023-02-03T03:29:20;9.37;;;5.30;;
7203;SDS011;3643;52.460;13.322;2023-02-03T03:31:53;10.43;;;4.90;;
7203;SDS011;3643;52.460;13.322;2023-02-03T03:34:23;8.53;;;5.20;;
7203;SDS011;3643;52.460;13.322;2023-02-03T03:36:52;8.40;;;5.03;;
7203;SDS011;3643;52.460;13.322;2023-02-03T03:39:31;8.83;;;5.27;;
7203;SDS011;3643;52.460;13.322;2023-02-03T03:42:08;8.63;;;4.50;;
7203;SDS011;3643;52.460;13.322;2023-02-03T03:44:42;10.97;;;5.50;;
7203;SDS011;3643;52.460;13.322;2023-02-03T03:47:19;6.80;;;4.43;;
7203;SDS011;3643;52.460;13.322;2023-02-03T03:49:52;5.67;;;4.30;;
7203;SDS011;3643;52.460;13.322;2023-02-03T03:52:25;8.03;;;4.93;;
7203;SDS011;3643;52.460;13.322;2023-02-03T03:54:58;11.93;;;5.27;;
7203;SDS011;3643;52.460;13.322;2023-02-03T03:57:29;8.03;;;4.77;;
7203;SDS011;3643;52.460;13.322;2023-02-03T04:00:02;9.70;;;5.07;;
7203;SDS011;3643;52.460;13.322;2023-02-03T04:02:36;7.53;;;5.10;;
7203;SDS011;3643;52.460;13.322;2023-02-03T04:05:08;9.60;;;5.23;;
7203;SDS011;3643;52.460;13.322;2023-02-03T04:07:40;7.30;;;5.27;;
7203;SDS011;3643;52.460;13.322;2023-02-03T04:10:13;8.83;;;4.83;;
7203;SDS011;3643;52.460;13.322;2023-02-03T04:12:47;5.47;;;4.30;;
7203;SDS011;3643;52.460;13.322;2023-02-03T04:15:16;9.70;;;6.13;;
7203;SDS011;3643;52.460;13.322;2023-02-03T04:17:44;10.37;;;6.10;;
7203;SDS011;3643;52.460;13.322;2023-02-03T04:20:14;10.93;;;6.47;;
7203;SDS011;3643;52.460;13.322;2023-02-03T04:22:43;12.77;;;7.00;;
7203;SDS011;3643;52.460;13.322;2023-02-03T04:25:12;12.10;;;6.90;;
7203;SDS011;3643;52.460;13.322;2023-02-03T04:27:40;11.57;;;7.27;;
7203;SDS011;3643;52.460;13.322;2023-02-03T04:30:09;13.33;;;6.93;;
7203;SDS011;3643;52.460;13.322;2023-02-03T04:32:39;15.70;;;8.47;;
7203;SDS011;3643;52.460;13.322;2023-02-03T04:35:08;13.43;;;7.47;;
7203;SDS011;3643;52.460;13.322;2023-02-03T04:37:37;15.87;;;8.13;;
7203;SDS011;3643;52.460;13.322;2023-02-03T04:40:07;18.37;;;9.80;;
7203;SDS011;3643;52.460;13.322;2023-02-03T04:42:36;17.40;;;7.87;;
7203;SDS011;3643;52.460;13.322;2023-02-03T04:45:06;19.37;;;8.90;;
7203;SDS011;3643;52.460;13.322;2023-02-03T04:47:37;23.93;;;10.63;;
7203;SDS011;3643;52.460;13.322;2023-02-03T04:50:06;32.90;;;11.80;;
7203;SDS011;3643;52.460;13.322;2023-02-03T04:52:35;29.70;;;12.63;;
7203;SDS011;3643;52.460;13.322;2023-02-03T04:55:06;31.77;;;12.33;;
7203;SDS011;3643;52.460;13.322;2023-02-03T04:57:35;27.00;;;12.40;;
7203;SDS011;3643;52.460;13.322;2023-02-03T05:00:04;27.03;;;12.67;;
7203;SDS011;3643;52.460;13.322;2023-02-03T05:02:34;36.93;;;14.23;;
7203;SDS011;3643;52.460;13.322;2023-02-03T05:05:03;31.40;;;13.37;;
7203;SDS011;3643;52.460;13.322;2023-02-03T05:07:31;42.50;;;15.33;;
7203;SDS011;3643;52.460;13.322;2023-02-03T05:10:01;33.80;;;13.77;;
7203;SDS011;3643;52.460;13.322;2023-02-03T05:12:29;30.53;;;13.23;;
7203;SDS011;3643;52.460;13.322;2023-02-03T05:14:57;42.43;;;15.53;;
7203;SDS011;3643;52.460;13.322;2023-02-03T05:17:25;51.60;;;18.83;;
7203;SDS011;3643;52.460;13.322;2023-02-03T05:19:53;48.43;;;17.33;;
7203;SDS011;3643;52.460;13.322;2023-02-03T05:22:21;50.20;;;19.33;;
7203;SDS011;3643;52.460;13.322;2023-02-03T05:24:50;61.70;;;20.10;;
7203;SDS011;3643;52.460;13.322;2023-02-03T05:27:19;84.30;;;22.00;;
7203;SDS011;3643;52.460;13.322;2023-02-03T05:29:47;62.37;;;19.63;;
7203;SDS011;3643;52.460;13.322;2023-02-03T05:32:15;73.23;;;20.97;;
7203;SDS011;3643;52.460;13.322;2023-02-03T05:34:43;91.10;;;25.60;;
7203;SDS011;3643;52.460;13.322;2023-02-03T05:37:11;106.07;;;25.60;;
7203;SDS011;3643;52.460;13.322;2023-02-03T05:39:39;83.40;;;27.87;;
7203;SDS011;3643;52.460;13.322;2023-02-03T05:42:07;126.03;;;27.87;;
7203;SDS011;3643;52.460;13.322;2023-02-03T05:44:36;102.07;;;29.13;;
7203;SDS011;3643;52.460;13.322;2023-02-03T05:47:04;107.90;;;28.47;;
7203;SDS011;3643;52.460;13.322;2023-02-03T05:49:32;98.90;;;26.47;;
7203;SDS011;3643;52.460;13.322;2023-02-03T05:52:00;86.63;;;26.50;;
7203;SDS011;3643;52.460;13.322;2023-02-03T05:54:28;113.63;;;28.53;;
7203;SDS011;3643;52.460;13.322;2023-02-03T05:56:56;100.93;;;30.20;;
7203;SDS011;3643;52.460;13.322;2023-02-03T05:59:25;130.57;;;30.97;;
7203;SDS011;3643;52.460;13.322;2023-02-03T06:01:54;97.73;;;26.70;;
7203;SDS011;3643;52.460;13.322;2023-02-03T06:04:22;104.90;;;27.57;;
7203;SDS011;3643;52.460;13.322;2023-02-03T06:06:50;101.70;;;26.03;;
7203;SDS011;3643;52.460;13.322;2023-02-03T06:09:18;100.63;;;26.97;;
7203;SDS011;3643;52.460;13.322;2023-02-03T06:11:46;104.77;;;29.90;;
7203;SDS011;3643;52.460;13.322;2023-02-03T06:14:14;89.20;;;25.67;;
7203;SDS011;3643;52.460;13.322;2023-02-03T06:16:43;117.57;;;29.77;;
7203;SDS011;3643;52.460;13.322;2023-02-03T06:19:12;82.43;;;28.77;;
7203;SDS011;3643;52.460;13.322;2023-02-03T06:21:41;92.90;;;26.70;;
7203;SDS011;3643;52.460;13.322;2023-02-03T06:24:09;85.43;;;25.90;;
7203;SDS011;3643;52.460;13.322;2023-02-03T06:26:38;82.73;;;25.47;;
7203;SDS011;3643;52.460;13.322;2023-02-03T06:29:06;92.30;;;27.40;;
7203;SDS011;3643;52.460;13.322;2023-02-03T06:31:34;98.30;;;27.07;;
7203;SDS011;3643;52.460;13.322;2023-02-03T06:34:02;102.93;;;30.13;;
7203;SDS011;3643;52.460;13.322;2023-02-03T06:36:31;97.70;;;27.57;;
7203;SDS011;3643;52.460;13.322;2023-02-03T06:38:59;81.77;;;29.00;;
7203;SDS011;3643;52.460;13.322;2023-02-03T06:41:27;106.83;;;29.33;;
7203;SDS011;3643;52.460;13.322;2023-02-03T06:43:56;88.43;;;29.73;;
7203;SDS011;3643;52.460;13.322;2023-02-03T06:46:24;105.57;;;28.70;;
7203;SDS011;3643;52.460;13.322;2023-02-03T06:48:55;110.10;;;29.93;;
7203;SDS011;3643;52.460;13.322;2023-02-03T06:51:23;85.53;;;29.13;;
7203;SDS011;3643;52.460;13.322;2023-02-03T06:53:53;92.07;;;26.50;;
7203;SDS011;3643;52.460;13.322;2023-02-03T06:56:21;86.87;;;28.47;;
7203;SDS011;3643;52.460;13.322;2023-02-03T06:58:49;94.27;;;29.17;;
7203;SDS011;3643;52.460;13.322;2023-02-03T07:01:17;95.80;;;29.70;;
7203;SDS011;3643;52.460;13.322;2023-02-03T07:03:46;94.80;;;27.27;;
7203;SDS011;3643;52.460;13.322;2023-02-03T07:06:14;86.10;;;28.53;;
7203;SDS011;3643;52.460;13.322;2023-02-03T07:08:42;67.43;;;23.93;;
7203;SDS011;3643;52.460;13.322;2023-02-03T07:11:12;77.80;;;27.33;;
7203;SDS011;3643;52.460;13.322;2023-02-03T07:13:40;88.27;;;27.63;;
7203;SDS011;3643;52.460;13.322;2023-02-03T07:16:08;80.90;;;27.57;;
7203;SDS011;3643;52.460;13.322;2023-02-03T07:18:36;95.63;;;27.80;;
7203;SDS011;3643;52.460;13.322;2023-02-03T07:21:14;89.43;;;29.33;;
7203;SDS011;3643;52.460;13.322;2023-02-03T07:23:42;66.87;;;26.73;;
7203;SDS011;3643;52.460;13.322;2023-02-03T07:26:15;81.13;;;26.00;;
7203;SDS011;3643;52.460;13.322;2023-02-03T07:28:44;75.73;;;26.77;;
7203;SDS011;3643;52.460;13.322;2023-02-03T07:31:12;88.77;;;26.97;;
7203;SDS011;3643;52.460;13.322;2023-02-03T07:33:40;67.60;;;24.80;;
7203;SDS011;3643;52.460;13.322;2023-02-03T07:36:09;58.00;;;23.27;;
7203;SDS011;3643;52.460;13.322;2023-02-03T07:38:37;74.40;;;25.53;;
7203;SDS011;3643;52.460;13.322;2023-02-03T07:41:06;61.80;;;24.17;;
7203;SDS011;3643;52.460;13.322;2023-02-03T07:43:35;59.07;;;23.13;;
7203;SDS011;3643;52.460;13.322;2023-02-03T07:46:03;66.37;;;23.20;;
7203;SDS011;3643;52.460;13.322;2023-02-03T07:48:31;69.47;;;22.27;;
7203;SDS011;3643;52.460;13.322;2023-02-03T07:51:00;52.70;;;21.73;;
7203;SDS011;3643;52.460;13.322;2023-02-03T07:53:28;62.60;;;22.73;;
7203;SDS011;3643;52.460;13.322;2023-02-03T07:55:58;67.17;;;22.53;;
7203;SDS011;3643;52.460;13.322;2023-02-03T07:58:27;56.17;;;21.63;;
7203;SDS011;3643;52.460;13.322;2023-02-03T08:00:57;50.77;;;21.40;;
7203;SDS011;3643;52.460;13.322;2023-02-03T08:03:25;45.87;;;20.27;;
7203;SDS011;3643;52.460;13.322;2023-02-03T08:05:54;54.90;;;21.13;;
7203;SDS011;3643;52.460;13.322;2023-02-03T08:08:23;47.83;;;20.57;;
7203;SDS011;3643;52.460;13.322;2023-02-03T08:10:53;48.60;;;22.37;;
7203;SDS011;3643;52.460;13.322;2023-02-03T08:13:22;58.23;;;23.17;;
7203;SDS011;3643;52.460;13.322;2023-02-03T08:15:50;63.83;;;24.40;;
7203;SDS011;3643;52.460;13.322;2023-02-03T08:18:20;49.73;;;18.97;;
7203;SDS011;3643;52.460;13.322;2023-02-03T08:20:48;43.63;;;18.27;;
7203;SDS011;3643;52.460;13.322;2023-02-03T08:23:17;42.67;;;17.83;;
7203;SDS011;3643;52.460;13.322;2023-02-03T08:25:48;45.07;;;17.93;;
7203;SDS011;3643;52.460;13.322;2023-02-03T08:28:17;40.27;;;17.00;;
7203;SDS011;3643;52.460;13.322;2023-02-03T08:30:45;39.20;;;17.20;;
7203;SDS011;3643;52.460;13.322;2023-02-03T08:33:14;35.80;;;16.33;;
7203;SDS011;3643;52.460;13.322;2023-02-03T08:35:45;37.53;;;15.83;;
7203;SDS011;3643;52.460;13.322;2023-02-03T08:38:13;37.97;;;15.13;;
7203;SDS011;3643;52.460;13.322;2023-02-03T08:40:42;31.37;;;14.97;;
7203;SDS011;3643;52.460;13.322;2023-02-03T08:43:11;31.80;;;16.00;;
7203;SDS011;3643;52.460;13.322;2023-02-03T08:45:39;29.60;;;15.10;;
7203;SDS011;3643;52.460;13.322;2023-02-03T08:48:07;29.53;;;14.00;;
7203;SDS011;3643;52.460;13.322;2023-02-03T08:50:35;33.17;;;15.10;;
7203;SDS011;3643;52.460;13.322;2023-02-03T08:53:04;31.13;;;14.67;;
7203;SDS011;3643;52.460;13.322;2023-02-03T08:55:32;33.73;;;14.30;;
7203;SDS011;3643;52.460;13.322;2023-02-03T08:58:01;26.53;;;14.37;;
7203;SDS011;3643;52.460;13.322;2023-02-03T09:00:29;32.03;;;13.67;;
7203;SDS011;3643;52.460;13.322;2023-02-03T09:02:57;34.73;;;13.90;;
7203;SDS011;3643;52.460;13.322;2023-02-03T09:05:25;30.63;;;13.67;;
7203;SDS011;3643;52.460;13.322;2023-02-03T09:07:53;28.60;;;12.80;;
7203;SDS011;3643;52.460;13.322;2023-02-03T09:10:23;30.20;;;13.23;;
7203;SDS011;3643;52.460;13.322;2023-02-03T09:12:52;27.93;;;12.67;;
7203;SDS011;3643;52.460;13.322;2023-02-03T09:15:20;27.13;;;12.43;;
7203;SDS011;3643;52.460;13.322;2023-02-03T09:17:48;23.70;;;11.87;;
7203;SDS011;3643;52.460;13.322;2023-02-03T09:20:16;24.67;;;11.73;;
7203;SDS011;3643;52.460;13.322;2023-02-03T09:22:44;25.50;;;11.77;;
7203;SDS011;3643;52.460;13.322;2023-02-03T09:25:12;24.73;;;11.20;;
7203;SDS011;3643;52.460;13.322;2023-02-03T09:27:42;21.57;;;11.20;;
7203;SDS011;3643;52.460;13.322;2023-02-03T09:30:11;23.80;;;11.03;;
7203;SDS011;3643;52.460;13.322;2023-02-03T09:32:40;21.67;;;10.90;;
7203;SDS011;3643;52.460;13.322;2023-02-03T09:35:08;22.43;;;9.90;;
7203;SDS011;3643;52.460;13.322;2023-02-03T09:37:37;19.47;;;9.87;;
7203;SDS011;3643;52.460;13.322;2023-02-03T09:40:05;26.10;;;11.27;;
7203;SDS011;3643;52.460;13.322;2023-02-03T09:45:28;25.60;;;9.73;;
7203;SDS011;3643;52.460;13.322;2023-02-03T09:47:59;21.47;;;10.27;;
7203;SDS011;3643;52.460;13.322;2023-02-03T09:50:32;21.53;;;10.13;;
7203;SDS011;3643;52.460;13.322;2023-02-03T09:53:04;25.70;;;9.93;;
7203;SDS011;3643;52.460;13.322;2023-02-03T09:55:39;19.23;;;9.37;;
7203;SDS011;3643;52.460;13.322;2023-02-03T09:58:13;17.57;;;9.23;;
7203;SDS011;3643;52.460;13.322;2023-02-03T10:00:44;19.33;;;9.53;;
7203;SDS011;3643;52.460;13.322;2023-02-03T10:03:18;15.80;;;8.07;;
7203;SDS011;3643;52.460;13.322;2023-02-03T10:09:01;26.03;;;14.37;;
7203;SDS011;3643;52.460;13.322;2023-02-03T10:11:47;22.00;;;8.90;;
7203;SDS011;3643;52.460;13.322;2023-02-03T10:14:41;17.30;;;8.20;;
7203;SDS011;3643;52.460;13.322;2023-02-03T10:17:23;17.87;;;8.40;;
7203;SDS011;3643;52.460;13.322;2023-02-03T10:19:57;15.17;;;8.17;;
7203;SDS011;3643;52.460;13.322;2023-02-03T10:22:32;13.97;;;7.77;;
7203;SDS011;3643;52.460;13.322;2023-02-03T10:25:05;13.57;;;7.27;;
7203;SDS011;3643;52.460;13.322;2023-02-03T10:27:42;11.93;;;6.77;;
7203;SDS011;3643;52.460;13.322;2023-02-03T10:30:15;17.63;;;7.00;;
7203;SDS011;3643;52.460;13.322;2023-02-03T10:32:48;13.43;;;7.07;;
7203;SDS011;3643;52.460;13.322;2023-02-03T10:35:18;15.20;;;7.43;;
7203;SDS011;3643;52.460;13.322;2023-02-03T10:37:53;13.97;;;7.00;;
7203;SDS011;3643;52.460;13.322;2023-02-03T10:40:25;13.73;;;6.17;;
7203;SDS011;3643;52.460;13.322;2023-02-03T10:42:56;13.97;;;6.23;;
7203;SDS011;3643;52.460;13.322;2023-02-03T10:45:44;14.97;;;6.13;;
7203;SDS011;3643;52.460;13.322;2023-02-03T10:48:12;14.40;;;6.23;;
7203;SDS011;3643;52.460;13.322;2023-02-03T10:50:45;17.33;;;6.30;;
7203;SDS011;3643;52.460;13.322;2023-02-03T10:53:20;10.30;;;4.63;;
7203;SDS011;3643;52.460;13.322;2023-02-03T10:55:50;8.77;;;3.30;;
7203;SDS011;3643;52.460;13.322;2023-02-03T10:58:28;9.27;;;2.30;;
7203;SDS011;3643;52.460;13.322;2023-02-03T11:01:05;6.60;;;2.23;;
7203;SDS011;3643;52.460;13.322;2023-02-03T11:03:36;4.37;;;2.17;;
7203;SDS011;3643;52.460;13.322;2023-02-03T11:06:08;11.77;;;2.30;;
7203;SDS011;3643;52.460;13.322;2023-02-03T11:08:38;13.80;;;2.87;;
7203;SDS011;3643;52.460;13.322;2023-02-03T11:11:08;10.33;;;2.30;;
7203;SDS011;3643;52.460;13.322;2023-02-03T11:13:40;14.63;;;2.63;;
7203;SDS011;3643;52.460;13.322;2023-02-03T11:16:11;6.37;;;2.23;;
7203;SDS011;3643;52.460;13.322;2023-02-03T11:18:43;13.40;;;2.73;;
7203;SDS011;3643;52.460;13.322;2023-02-03T11:21:18;14.27;;;3.00;;
7203;SDS011;3643;52.460;13.322;2023-02-03T11:23:52;12.03;;;2.70;;
7203;SDS011;3643;52.460;13.322;2023-02-03T11:26:24;20.20;;;3.63;;
7203;SDS011;3643;52.460;13.322;2023-02-03T11:28:56;17.57;;;4.13;;
7203;SDS011;3643;52.460;13.322;2023-02-03T11:31:28;22.97;;;3.53;;
7203;SDS011;3643;52.460;13.322;2023-02-03T11:34:00;26.50;;;3.90;;
7203;SDS011;3643;52.460;13.322;2023-02-03T11:36:31;33.57;;;3.40;;
7203;SDS011;3643;52.460;13.322;2023-02-03T11:39:07;24.47;;;3.93;;
7203;SDS011;3643;52.460;13.322;2023-02-03T11:41:47;37.53;;;3.90;;
7203;SDS011;3643;52.460;13.322;2023-02-03T11:44:16;30.80;;;4.80;;
7203;SDS011;3643;52.460;13.322;2023-02-03T11:46:50;27.90;;;3.73;;
7203;SDS011;3643;52.460;13.322;2023-02-03T11:55:39;29.57;;;4.67;;
7203;SDS011;3643;52.460;13.322;2023-02-03T11:58:21;37.10;;;4.23;;
7203;SDS011;3643;52.460;13.322;2023-02-03T12:01:26;28.77;;;4.80;;
7203;SDS011;3643;52.460;13.322;2023-02-03T12:10:12;25.90;;;4.33;;
7203;SDS011;3643;52.460;13.322;2023-02-03T12:12:55;42.00;;;6.10;;
7203;SDS011;3643;52.460;13.322;2023-02-03T12:15:37;37.63;;;4.93;;
7203;SDS011;3643;52.460;13.322;2023-02-03T12:18:19;24.50;;;4.67;;
7203;SDS011;3643;52.460;13.322;2023-02-03T12:21:01;22.97;;;4.80;;
7203;SDS011;3643;52.460;13.322;2023-02-03T12:23:41;26.50;;;4.43;;
7203;SDS011;3643;52.460;13.322;2023-02-03T12:26:20;31.77;;;5.40;;
7203;SDS011;3643;52.460;13.322;2023-02-03T12:28:56;29.57;;;5.23;;
7203;SDS011;3643;52.460;13.322;2023-02-03T12:31:31;34.57;;;5.17;;
7203;SDS011;3643;52.460;13.322;2023-02-03T12:34:05;49.13;;;6.37;;
7203;SDS011;3643;52.460;13.322;2023-02-03T12:36:44;32.50;;;5.93;;
7203;SDS011;3643;52.460;13.322;2023-02-03T12:39:19;36.03;;;5.90;;
7203;SDS011;3643;52.460;13.322;2023-02-03T12:41:54;33.67;;;5.53;;
7203;SDS011;3643;52.460;13.322;2023-02-03T12:44:25;23.10;;;5.43;;
7203;SDS011;3643;52.460;13.322;2023-02-03T12:47:00;39.83;;;5.87;;
7203;SDS011;3643;52.460;13.322;2023-02-03T12:49:34;34.07;;;6.20;;
7203;SDS011;3643;52.460;13.322;2023-02-03T12:52:13;29.83;;;5.20;;
7203;SDS011;3643;52.460;13.322;2023-02-03T12:54:48;28.47;;;5.63;;
7203;SDS011;3643;52.460;13.322;2023-02-03T12:57:24;28.47;;;6.53;;
7203;SDS011;3643;52.460;13.322;2023-02-03T13:02:50;27.17;;;5.33;;
7203;SDS011;3643;52.460;13.322;2023-02-03T13:05:28;23.77;;;4.40;;
7203;SDS011;3643;52.460;13.322;2023-02-03T13:08:09;28.20;;;5.20;;
7203;SDS011;3643;52.460;13.322;2023-02-03T13:10:44;27.90;;;4.80;;
7203;SDS011;3643;52.460;13.322;2023-02-03T13:13:17;26.30;;;4.50;;
7203;SDS011;3643;52.460;13.322;2023-02-03T13:15:52;28.37;;;5.00;;
7203;SDS011;3643;52.460;13.322;2023-02-03T13:18:23;31.10;;;5.07;;
7203;SDS011;3643;52.460;13.322;2023-02-03T13:20:56;30.37;;;5.03;;
7203;SDS011;3643;52.460;13.322;2023-02-03T13:23:26;18.93;;;4.30;;
7203;SDS011;3643;52.460;13.322;2023-02-03T13:26:02;25.97;;;3.93;;
7203;SDS011;3643;52.460;13.322;2023-02-03T13:28:46;23.87;;;3.80;;
7203;SDS011;3643;52.460;13.322;2023-02-03T13:31:39;28.70;;;3.67;;
7203;SDS011;3643;52.460;13.322;2023-02-03T13:34:20;20.57;;;3.90;;
7203;SDS011;3643;52.460;13.322;2023-02-03T13:37:11;19.23;;;2.90;;
7203;SDS011;3643;52.460;13.322;2023-02-03T13:40:14;30.07;;;3.60;;
7203;SDS011;3643;52.460;13.322;2023-02-03T13:42:51;15.17;;;2.63;;
7203;SDS011;3643;52.460;13.322;2023-02-03T13:45:24;26.03;;;4.03;;
7203;SDS011;3643;52.460;13.322;2023-02-03T13:47:55;26.03;;;3.77;;
7203;SDS011;3643;52.460;13.322;2023-02-03T13:50:28;19.80;;;3.57;;
7203;SDS011;3643;52.460;13.322;2023-02-03T13:52:58;23.23;;;3.53;;
7203;SDS011;3643;52.460;13.322;2023-02-03T13:55:34;26.67;;;4.77;;
7203;SDS011;3643;52.460;13.322;2023-02-03T13:58:06;29.00;;;4.83;;
7203;SDS011;3643;52.460;13.322;2023-02-03T14:01:03;32.53;;;4.70;;
7203;SDS011;3643;52.460;13.322;2023-02-03T14:03:47;22.17;;;3.97;;
7203;SDS011;3643;52.460;13.322;2023-02-03T14:09:36;32.63;;;4.60;;
7203;SDS011;3643;52.460;13.322;2023-02-03T14:15:12;32.50;;;5.00;;
7203;SDS011;3643;52.460;13.322;2023-02-03T14:17:55;43.00;;;4.63;;
7203;SDS011;3643;52.460;13.322;2023-02-03T14:20:33;42.03;;;5.17;;
7203;SDS011;3643;52.460;13.322;2023-02-03T14:23:20;36.63;;;5.33;;
7203;SDS011;3643;52.460;13.322;2023-02-03T14:25:56;35.27;;;5.17;;
7203;SDS011;3643;52.460;13.322;2023-02-03T14:28:30;27.03;;;4.83;;
7203;SDS011;3643;52.460;13.322;2023-02-03T14:31:09;30.90;;;4.73;;
7203;SDS011;3643;52.460;13.322;2023-02-03T14:33:49;32.37;;;5.57;;
7203;SDS011;3643;52.460;13.322;2023-02-03T14:36:26;48.03;;;7.27;;
7203;SDS011;3643;52.460;13.322;2023-02-03T14:38:57;36.97;;;6.33;;
7203;SDS011;3643;52.460;13.322;2023-02-03T14:41:31;41.00;;;6.53;;
7203;SDS011;3643;52.460;13.322;2023-02-03T14:44:15;42.23;;;6.40;;
7203;SDS011;3643;52.460;13.322;2023-02-03T14:46:58;36.37;;;5.73;;
7203;SDS011;3643;52.460;13.322;2023-02-03T14:49:39;39.93;;;6.03;;
7203;SDS011;3643;52.460;13.322;2023-02-03T14:52:23;56.63;;;6.90;;
7203;SDS011;3643;52.460;13.322;2023-02-03T14:55:08;45.23;;;6.27;;
7203;SDS011;3643;52.460;13.322;2023-02-03T14:57:55;43.30;;;5.63;;
7203;SDS011;3643;52.460;13.322;2023-02-03T15:00:29;48.00;;;6.93;;
7203;SDS011;3643;52.460;13.322;2023-02-03T15:05:57;32.67;;;5.73;;
7203;SDS011;3643;52.460;13.322;2023-02-03T15:11:23;41.00;;;6.70;;
7203;SDS011;3643;52.460;13.322;2023-02-03T15:13:56;34.27;;;5.67;;
7203;SDS011;3643;52.460;13.322;2023-02-03T15:16:46;31.53;;;6.03;;
7203;SDS011;3643;52.460;13.322;2023-02-03T15:19:22;32.03;;;7.00;;
7203;SDS011;3643;52.460;13.322;2023-02-03T15:21:52;39.27;;;5.57;;
7203;SDS011;3643;52.460;13.322;2023-02-03T15:24:20;38.53;;;6.07;;
7203;SDS011;3643;52.460;13.322;2023-02-03T15:26:52;32.10;;;5.57;;
7203;SDS011;3643;52.460;13.322;2023-02-03T15:29:22;39.43;;;5.37;;
7203;SDS011;3643;52.460;13.322;2023-02-03T15:32:00;33.47;;;5.37;;
7203;SDS011;3643;52.460;13.322;2023-02-03T15:34:35;23.57;;;5.07;;
7203;SDS011;3643;52.460;13.322;2023-02-03T15:37:07;23.97;;;5.00;;
7203;SDS011;3643;52.460;13.322;2023-02-03T15:39:42;28.60;;;5.40;;
7203;SDS011;3643;52.460;13.322;2023-02-03T15:42:24;30.30;;;5.03;;
7203;SDS011;3643;52.460;13.322;2023-02-03T15:44:57;32.83;;;6.00;;
7203;SDS011;3643;52.460;13.322;2023-02-03T15:47:31;27.23;;;5.00;;
7203;SDS011;3643;52.460;13.322;2023-02-03T15:50:07;32.30;;;5.57;;